createdAt,value
2023-12-09T00:01:10.722Z,98894.00
2023-12-09T00:04:08.652Z,98891.00
2023-12-09T00:07:06.353Z,98896.40
2023-12-09T00:10:04.051Z,98895.40
2023-12-09T00:13:01.454Z,98896.60
2023-12-09T00:15:59.191Z,98897.60
2023-12-09T00:18:57.531Z,98894.20
2023-12-09T00:21:55.372Z,98895.60
2023-12-09T00:24:53.447Z,98897.80
2023-12-09T00:27:51.173Z,98900.80
2023-12-09T00:30:48.574Z,98894.40
2023-12-09T00:33:46.381Z,98891.00
2023-12-09T00:36:43.966Z,98892.40
2023-12-09T00:39:41.642Z,98891.80
2023-12-09T00:42:39.104Z,98892.00
2023-12-09T00:45:36.825Z,98895.60
2023-12-09T00:48:34.637Z,98900.00
2023-12-09T00:51:32.694Z,98904.00
2023-12-09T00:54:30.595Z,98902.60
2023-12-09T00:57:28.408Z,98899.40
2023-12-09T01:00:27.193Z,98895.00
2023-12-09T01:03:25.484Z,98896.40
2023-12-09T01:06:22.986Z,98897.20
2023-12-09T01:09:20.600Z,98893.60
2023-12-09T01:12:18.121Z,98897.60
2023-12-09T01:15:16.115Z,98896.60
2023-12-09T01:18:13.943Z,98898.00
2023-12-09T01:21:11.781Z,98896.20
2023-12-09T01:24:09.462Z,98905.80
2023-12-09T01:27:07.274Z,98907.60
2023-12-09T01:30:05.732Z,98915.20
2023-12-09T01:33:03.436Z,98910.80
2023-12-09T01:36:01.811Z,98908.40
2023-12-09T01:38:59.264Z,98909.80
2023-12-09T01:41:57.650Z,98918.80
2023-12-09T01:44:55.451Z,98918.20
2023-12-09T01:47:53.330Z,98925.20
2023-12-09T01:50:51.112Z,98915.00
2023-12-09T01:53:48.532Z,98923.60
2023-12-09T01:56:46.413Z,98925.40
2023-12-09T01:59:43.841Z,98924.40
2023-12-09T02:02:41.425Z,98919.20
2023-12-09T02:05:38.864Z,98915.80
2023-12-09T02:08:36.487Z,98927.80
2023-12-09T02:11:34.130Z,98927.40
2023-12-09T02:14:32.143Z,98928.60
2023-12-09T02:17:29.565Z,98927.40
2023-12-09T02:20:28.063Z,98922.80
2023-12-09T02:23:25.537Z,98927.00
2023-12-09T02:26:23.212Z,98923.00
2023-12-09T02:29:20.583Z,98923.60
2023-12-09T02:32:18.235Z,98923.20
2023-12-09T02:35:15.772Z,98921.00
2023-12-09T02:38:13.664Z,98917.80
2023-12-09T02:41:11.318Z,98918.80
2023-12-09T02:44:08.690Z,98916.60
2023-12-09T02:47:06.528Z,98917.00
2023-12-09T02:50:04.077Z,98914.00
2023-12-09T02:53:01.694Z,98909.00
2023-12-09T02:55:59.109Z,98901.00
2023-12-09T02:58:56.950Z,98914.40
2023-12-09T03:01:54.345Z,98912.80
2023-12-09T03:04:51.906Z,98915.40
2023-12-09T03:07:49.290Z,98923.00
2023-12-09T03:10:46.945Z,98924.00
2023-12-09T03:13:44.323Z,98930.00
2023-12-09T03:16:41.963Z,98927.60
2023-12-09T03:19:39.501Z,98932.40
2023-12-09T03:22:37.250Z,98930.80
2023-12-09T03:25:34.653Z,98930.20
2023-12-09T03:28:32.426Z,98934.00
2023-12-09T03:31:29.797Z,98931.80
2023-12-09T03:34:27.743Z,98931.80
2023-12-09T03:37:25.294Z,98937.20
2023-12-09T03:40:23.046Z,98935.80
2023-12-09T03:43:20.523Z,98932.40
2023-12-09T03:46:18.251Z,98932.20
2023-12-09T03:49:15.803Z,98931.00
2023-12-09T03:52:15.291Z,98933.20
2023-12-09T03:55:14.735Z,98939.00
2023-12-09T03:58:12.702Z,98943.20
2023-12-09T04:01:10.394Z,98946.80
2023-12-09T04:04:08.048Z,98948.80
2023-12-09T04:07:05.476Z,98949.20
2023-12-09T04:10:03.021Z,98953.80
2023-12-09T04:13:00.399Z,98956.40
2023-12-09T04:15:58.138Z,98953.60
2023-12-09T04:18:55.656Z,98954.20
2023-12-09T04:21:54.253Z,98963.80
2023-12-09T04:24:51.656Z,98963.40
2023-12-09T04:27:49.425Z,98964.20
2023-12-09T04:30:47.188Z,98963.60
2023-12-09T04:33:45.845Z,98960.80
2023-12-09T04:36:43.307Z,98956.40
2023-12-09T04:39:41.057Z,98962.20
2023-12-09T04:42:39.184Z,98964.80
2023-12-09T04:45:37.038Z,98963.20
2023-12-09T04:48:34.597Z,98959.40
2023-12-09T04:51:32.538Z,98958.40
2023-12-09T04:54:30.806Z,98963.60
2023-12-09T04:57:28.791Z,98964.20
2023-12-09T05:00:27.213Z,98963.20
2023-12-09T05:03:24.735Z,98966.40
2023-12-09T05:06:22.708Z,98962.20
2023-12-09T05:09:20.203Z,98961.40
2023-12-09T05:12:18.072Z,98966.80
2023-12-09T05:15:15.575Z,98966.20
2023-12-09T05:18:13.421Z,98961.40
2023-12-09T05:21:11.166Z,98956.20
2023-12-09T05:24:09.281Z,98962.00
2023-12-09T05:27:06.929Z,98962.60
2023-12-09T05:30:04.626Z,98959.00
2023-12-09T05:33:02.093Z,98958.60
2023-12-09T05:36:00.507Z,98960.40
2023-12-09T05:38:57.957Z,98965.60
2023-12-09T05:41:55.694Z,98969.20
2023-12-09T05:44:53.176Z,98973.80
2023-12-09T05:47:50.837Z,98970.00
2023-12-09T05:50:48.433Z,98973.80
2023-12-09T05:53:46.306Z,98981.40
2023-12-09T05:56:43.959Z,98976.00
2023-12-09T05:59:41.437Z,98979.80
2023-12-09T06:02:39.201Z,98973.80
2023-12-09T06:05:36.656Z,98975.60
2023-12-09T06:08:35.105Z,98973.40
2023-12-09T06:11:32.520Z,98973.80
2023-12-09T06:14:30.089Z,98976.60
2023-12-09T06:17:27.616Z,98976.40
2023-12-09T06:20:25.390Z,98979.20
2023-12-09T06:23:23.073Z,98977.80
2023-12-09T06:26:20.454Z,98977.00
2023-12-09T06:29:18.108Z,98981.00
2023-12-09T06:32:15.523Z,98978.20
2023-12-09T06:35:13.271Z,98977.20
2023-12-09T06:38:10.764Z,98976.00
2023-12-09T06:41:08.458Z,98971.00
2023-12-09T06:44:05.847Z,98972.00
2023-12-09T06:47:03.586Z,98973.20
2023-12-09T06:50:00.993Z,98970.20
2023-12-09T06:52:58.683Z,98972.80
2023-12-09T06:55:56.045Z,98974.60
2023-12-09T06:58:53.889Z,98977.00
2023-12-09T07:01:51.595Z,98977.00
2023-12-09T07:04:49.360Z,98973.80
2023-12-09T07:07:47.425Z,98967.40
2023-12-09T07:10:45.002Z,98967.80
2023-12-09T07:13:42.587Z,98969.40
2023-12-09T07:16:40.164Z,98975.40
2023-12-09T07:19:37.600Z,98979.80
2023-12-09T07:22:35.284Z,98974.40
2023-12-09T07:25:32.656Z,98970.60
2023-12-09T07:28:30.685Z,98967.60
2023-12-09T07:31:28.471Z,98968.00
2023-12-09T07:34:25.977Z,98964.80
2023-12-09T07:37:23.672Z,98967.40
2023-12-09T07:40:21.234Z,98966.80
2023-12-09T07:43:18.990Z,98965.00
2023-12-09T07:46:16.682Z,98963.40
2023-12-09T07:49:14.336Z,98970.80
2023-12-09T07:52:12.193Z,98969.20
2023-12-09T07:55:10.094Z,98974.00
2023-12-09T07:58:07.701Z,98973.20
2023-12-09T08:01:07.987Z,98977.60
2023-12-09T08:04:07.598Z,98983.20
2023-12-09T08:07:05.345Z,98975.40
2023-12-09T08:10:02.906Z,98972.40
2023-12-09T08:13:00.495Z,98969.20
2023-12-09T08:15:57.910Z,98978.40
2023-12-09T08:18:55.760Z,98979.60
2023-12-09T08:21:53.359Z,98972.60
2023-12-09T08:24:51.118Z,98968.00
2023-12-09T08:27:48.578Z,98975.40
2023-12-09T08:30:48.307Z,98971.60
2023-12-09T08:33:45.860Z,98968.80
2023-12-09T08:36:43.742Z,98970.00
2023-12-09T08:39:41.194Z,98971.20
2023-12-09T08:42:39.633Z,98973.20
2023-12-09T08:45:38.016Z,98975.00
2023-12-09T08:48:35.937Z,98973.20
2023-12-09T08:51:33.636Z,98973.00
2023-12-09T08:54:31.591Z,98976.00
2023-12-09T08:57:29.038Z,98979.20
2023-12-09T09:00:28.233Z,98983.00
2023-12-09T09:03:26.951Z,98979.60
2023-12-09T09:06:24.651Z,98986.40
2023-12-09T09:09:22.151Z,98977.60
2023-12-09T09:12:19.931Z,98981.60
2023-12-09T09:15:17.426Z,98979.40
2023-12-09T09:18:15.296Z,98980.80
2023-12-09T09:21:12.838Z,98982.60
2023-12-09T09:24:10.497Z,98985.00
2023-12-09T09:27:07.929Z,98985.80
2023-12-09T09:30:05.823Z,98979.40
2023-12-09T09:33:03.520Z,98980.40
2023-12-09T09:36:01.572Z,98976.80
2023-12-09T09:38:58.997Z,98975.20
2023-12-09T09:41:57.501Z,98978.20
2023-12-09T09:44:54.920Z,98974.80
2023-12-09T09:47:52.716Z,98977.00
2023-12-09T09:50:50.114Z,98972.60
2023-12-09T09:53:47.790Z,98969.40
2023-12-09T09:56:45.179Z,98968.80
2023-12-09T09:59:42.950Z,98959.40
2023-12-09T10:02:40.348Z,98958.60
2023-12-09T10:05:38.541Z,98948.00
2023-12-09T10:08:36.749Z,98950.20
2023-12-09T10:11:34.142Z,98947.80
2023-12-09T10:14:32.415Z,98943.40
2023-12-09T10:17:29.860Z,98938.00
2023-12-09T10:20:29.150Z,98934.40
2023-12-09T10:23:26.577Z,98934.40
2023-12-09T10:26:24.309Z,98938.60
2023-12-09T10:29:21.702Z,98937.00
2023-12-09T10:32:19.406Z,98927.60
2023-12-09T10:35:16.804Z,98919.60
2023-12-09T10:38:14.532Z,98916.60
2023-12-09T10:41:11.930Z,98914.00
2023-12-09T10:44:09.606Z,98912.40
2023-12-09T10:47:07.659Z,98913.20
2023-12-09T10:50:05.208Z,98909.40
2023-12-09T10:53:02.863Z,98906.60
2023-12-09T10:56:00.249Z,98892.40
2023-12-09T10:58:57.869Z,98893.20
2023-12-09T11:01:55.293Z,98884.00
2023-12-09T11:04:53.353Z,98876.20
2023-12-09T11:07:51.009Z,98883.00
2023-12-09T11:10:49.607Z,98888.40
2023-12-09T11:13:49.058Z,98880.60
2023-12-09T11:16:47.491Z,98884.60
2023-12-09T11:19:45.775Z,98887.80
2023-12-09T11:22:43.436Z,98879.60
2023-12-09T11:25:41.272Z,98873.80
2023-12-09T11:28:38.717Z,98873.00
2023-12-09T11:31:36.364Z,98869.60
2023-12-09T11:34:34.379Z,98868.40
2023-12-09T11:37:32.238Z,98864.80
2023-12-09T11:40:29.641Z,98858.80
2023-12-09T11:43:27.375Z,98862.00
2023-12-09T11:46:25.652Z,98862.40
2023-12-09T11:49:23.552Z,98853.40
2023-12-09T11:52:21.266Z,98848.00
2023-12-09T11:55:19.019Z,98851.60
2023-12-09T11:58:16.438Z,98853.60
2023-12-09T12:01:14.122Z,98851.60
2023-12-09T12:04:11.998Z,98850.40
2023-12-09T12:07:09.766Z,98851.00
2023-12-09T12:10:07.203Z,98845.00
2023-12-09T12:13:04.801Z,98836.60
2023-12-09T12:16:02.449Z,98837.40
2023-12-09T12:19:00.080Z,98840.00
2023-12-09T12:21:57.607Z,98831.20
2023-12-09T12:24:55.219Z,98832.40
2023-12-09T12:27:52.937Z,98830.40
2023-12-09T12:30:50.806Z,98831.20
2023-12-09T12:33:48.688Z,98830.60
2023-12-09T12:36:46.444Z,98829.60
2023-12-09T12:39:44.197Z,98830.40
2023-12-09T12:42:41.925Z,98823.80
2023-12-09T12:45:40.834Z,98817.00
2023-12-09T12:48:38.790Z,98813.00
2023-12-09T12:51:36.632Z,98818.20
2023-12-09T12:54:34.597Z,98817.60
2023-12-09T12:57:32.753Z,98809.20
2023-12-09T13:00:32.026Z,98808.00
2023-12-09T13:03:30.564Z,98801.40
2023-12-09T13:09:26.660Z,98792.40
2023-12-09T13:12:24.764Z,98783.20
2023-12-09T13:15:22.946Z,98782.40
2023-12-09T13:18:22.543Z,98776.80
2023-12-09T13:21:20.713Z,98770.60
2023-12-09T13:24:18.212Z,98761.40
2023-12-09T13:27:15.874Z,98762.40
2023-12-09T13:30:14.732Z,98755.40
2023-12-09T13:33:12.988Z,98758.60
2023-12-09T13:36:13.975Z,98755.80
2023-12-09T13:39:13.327Z,98744.20
2023-12-09T13:42:13.772Z,98740.60
2023-12-09T13:45:11.753Z,98746.20
2023-12-09T13:48:10.363Z,98740.80
2023-12-09T13:51:09.938Z,98746.00
2023-12-09T13:54:07.400Z,98744.60
2023-12-09T13:57:05.083Z,98738.20
2023-12-09T14:00:09.308Z,98738.00
2023-12-09T14:03:07.336Z,98741.80
2023-12-09T14:06:05.033Z,98736.40
2023-12-09T14:09:02.519Z,98736.40
2023-12-09T14:12:00.239Z,98742.20
2023-12-09T14:14:59.429Z,98733.40
2023-12-09T14:17:57.061Z,98734.20
2023-12-09T14:20:56.063Z,98725.60
2023-12-09T14:23:53.937Z,98729.80
2023-12-09T14:26:51.610Z,98736.20
2023-12-09T14:29:49.028Z,98737.00
2023-12-09T14:32:46.921Z,98734.60
2023-12-09T14:35:44.503Z,98733.40
2023-12-09T14:38:42.477Z,98723.60
2023-12-09T14:41:41.607Z,98717.40
2023-12-09T14:44:39.336Z,98709.60
2023-12-09T14:47:36.973Z,98710.40
2023-12-09T14:50:34.768Z,98708.00
2023-12-09T14:53:32.520Z,98706.20
2023-12-09T14:56:29.958Z,98699.80
2023-12-09T14:59:27.649Z,98698.00
2023-12-09T15:02:25.107Z,98696.80
2023-12-09T15:05:22.878Z,98684.80
2023-12-09T15:08:20.436Z,98677.60
2023-12-09T15:11:18.052Z,98670.60
2023-12-09T15:14:15.479Z,98661.60
2023-12-09T15:17:13.182Z,98660.40
2023-12-09T15:20:11.112Z,98662.40
2023-12-09T15:23:08.970Z,98658.60
2023-12-09T15:26:06.405Z,98660.00
2023-12-09T15:29:04.591Z,98664.60
2023-12-09T15:32:02.258Z,98655.80
2023-12-09T15:34:59.719Z,98650.40
2023-12-09T15:37:58.637Z,98650.20
2023-12-09T15:40:56.294Z,98646.60
2023-12-09T15:43:54.061Z,98639.40
2023-12-09T15:46:51.590Z,98643.80
2023-12-09T15:49:49.341Z,98641.80
2023-12-09T15:52:47.322Z,98641.00
2023-12-09T15:55:45.317Z,98637.60
2023-12-09T15:58:43.094Z,98630.60
2023-12-09T16:01:40.633Z,98630.40
2023-12-09T16:04:39.238Z,98618.00
2023-12-09T16:07:38.646Z,98603.00
2023-12-09T16:10:36.385Z,98595.00
2023-12-09T16:13:34.785Z,98598.40
2023-12-09T16:16:32.533Z,98597.80
2023-12-09T16:19:30.090Z,98594.00
2023-12-09T16:22:28.223Z,98586.80
2023-12-09T16:25:25.819Z,98594.40
2023-12-09T16:28:23.543Z,98595.40
2023-12-09T16:31:21.045Z,98594.20
2023-12-09T16:34:18.975Z,98594.20
2023-12-09T16:37:16.636Z,98594.40
2023-12-09T16:40:15.106Z,98591.80
2023-12-09T16:43:12.572Z,98587.60
2023-12-09T16:46:10.885Z,98578.20
2023-12-09T16:49:09.219Z,98575.80
2023-12-09T16:52:07.211Z,98579.00
2023-12-09T16:55:04.739Z,98582.20
2023-12-09T16:58:02.530Z,98573.20
2023-12-09T17:00:59.986Z,98570.80
2023-12-09T17:03:57.850Z,98561.20
2023-12-09T17:06:55.607Z,98556.20
2023-12-09T17:09:53.561Z,98539.40
2023-12-09T17:12:51.875Z,98530.20
2023-12-09T17:15:49.674Z,98514.60
2023-12-09T17:18:47.271Z,98498.80
2023-12-09T17:21:45.038Z,98497.00
2023-12-09T17:24:42.990Z,98502.20
2023-12-09T17:27:40.906Z,98504.40
2023-12-09T17:30:38.832Z,98487.00
2023-12-09T17:33:36.780Z,98477.00
2023-12-09T17:36:34.451Z,98478.00
2023-12-09T17:39:32.233Z,98480.20
2023-12-09T17:42:29.904Z,98469.00
2023-12-09T17:45:28.733Z,98459.40
2023-12-09T17:48:26.994Z,98440.60
2023-12-09T17:51:24.981Z,98436.00
2023-12-09T17:54:22.482Z,98427.20
2023-12-09T17:57:20.500Z,98419.00
2023-12-09T18:00:18.046Z,98412.80
2023-12-09T18:03:15.798Z,98410.20
2023-12-09T18:06:13.404Z,98402.20
2023-12-09T18:09:11.130Z,98395.60
2023-12-09T18:12:08.646Z,98387.60
2023-12-09T18:15:06.375Z,98387.20
2023-12-09T18:18:03.847Z,98379.60
2023-12-09T18:21:01.460Z,98373.80
2023-12-09T18:23:58.895Z,98366.60
2023-12-09T18:26:56.692Z,98364.40
2023-12-09T18:29:55.729Z,98354.20
2023-12-09T18:32:53.850Z,98346.40
2023-12-09T18:35:51.432Z,98332.60
2023-12-09T18:38:49.301Z,98330.20
2023-12-09T18:41:46.822Z,98329.00
2023-12-09T18:44:44.610Z,98315.80
2023-12-09T18:47:42.236Z,98311.00
2023-12-09T18:50:40.238Z,98315.60
2023-12-09T18:53:37.679Z,98309.00
2023-12-09T18:56:37.038Z,98298.60
2023-12-09T18:59:34.451Z,98288.60
2023-12-09T19:02:33.673Z,98279.00
2023-12-09T19:05:31.889Z,98276.20
2023-12-09T19:08:29.635Z,98268.00
2023-12-09T19:11:27.391Z,98257.00
2023-12-09T19:14:24.813Z,98242.00
2023-12-09T19:17:22.633Z,98230.40
2023-12-09T19:20:20.042Z,98230.60
2023-12-09T19:23:17.654Z,98219.00
2023-12-09T19:26:15.520Z,98212.00
2023-12-09T19:29:17.298Z,98206.60
2023-12-09T19:32:15.980Z,98207.00
2023-12-09T19:35:13.727Z,98198.60
2023-12-09T19:38:11.150Z,98185.00
2023-12-09T19:41:08.847Z,98180.40
2023-12-09T19:44:06.290Z,98174.40
2023-12-09T19:47:04.094Z,98170.00
2023-12-09T19:50:01.637Z,98162.40
2023-12-09T19:53:00.934Z,98152.40
2023-12-09T19:55:58.732Z,98144.60
2023-12-09T19:58:56.210Z,98134.40
2023-12-09T20:01:53.896Z,98131.40
2023-12-09T20:04:51.598Z,98123.40
2023-12-09T20:07:49.365Z,98110.00
2023-12-09T20:10:47.367Z,98108.40
2023-12-09T20:13:45.782Z,98093.40
2023-12-09T20:16:43.591Z,98073.60
2023-12-09T20:19:41.154Z,98073.40
2023-12-09T20:22:39.019Z,98064.80
2023-12-09T20:25:36.529Z,98068.80
2023-12-09T20:28:34.176Z,98072.20
2023-12-09T20:31:31.881Z,98067.00
2023-12-09T20:34:29.453Z,98048.60
2023-12-09T20:37:27.371Z,98035.80
2023-12-09T20:40:25.154Z,98029.00
2023-12-09T20:43:22.970Z,98018.00
2023-12-09T20:46:20.424Z,98014.80
2023-12-09T20:49:19.020Z,98009.00
2023-12-09T20:52:17.713Z,97998.20
2023-12-09T20:55:15.375Z,97995.60
2023-12-09T20:58:13.271Z,98004.20
2023-12-09T21:01:10.799Z,98000.80
2023-12-09T21:04:08.745Z,97998.40
2023-12-09T21:07:06.392Z,97994.20
2023-12-09T21:10:05.556Z,97979.60
2023-12-09T21:13:03.168Z,97983.20
2023-12-09T21:16:00.791Z,97982.80
2023-12-09T21:18:59.379Z,97973.40
2023-12-09T21:21:57.321Z,97949.20
2023-12-09T21:24:54.797Z,97930.40
2023-12-09T21:27:52.608Z,97924.40
2023-12-09T21:30:50.289Z,97900.60
2023-12-09T21:33:48.141Z,97890.40
2023-12-09T21:36:46.388Z,97886.00
2023-12-09T21:39:44.339Z,97890.40
2023-12-09T21:42:41.813Z,97891.40
2023-12-09T21:45:39.672Z,97899.60
2023-12-09T21:48:37.576Z,97912.80
2023-12-09T21:51:35.162Z,97920.40
2023-12-09T21:54:32.909Z,97916.80
2023-12-09T21:57:30.828Z,97918.80
2023-12-09T22:00:28.319Z,97916.20
2023-12-09T22:03:26.200Z,97912.80
2023-12-09T22:06:23.909Z,97913.40
2023-12-09T22:09:21.646Z,97899.20
2023-12-09T22:12:19.138Z,97880.40
2023-12-09T22:15:19.040Z,97880.40
2023-12-09T22:18:16.613Z,97879.00
2023-12-09T22:21:14.457Z,97878.60
2023-12-09T22:24:11.976Z,97863.60
2023-12-09T22:27:09.817Z,97855.40
2023-12-09T22:30:07.448Z,97828.40
2023-12-09T22:33:05.689Z,97825.80
2023-12-09T22:36:03.478Z,97824.80
2023-12-09T22:39:01.118Z,97825.00
2023-12-09T22:41:58.888Z,97818.20
2023-12-09T22:44:56.677Z,97807.80
2023-12-09T22:47:54.251Z,97797.40
2023-12-09T22:50:54.553Z,97799.40
2023-12-09T22:53:52.700Z,97796.80
2023-12-09T22:56:50.457Z,97794.00
2023-12-09T22:59:47.863Z,97798.60
2023-12-09T23:02:45.565Z,97796.20
2023-12-09T23:05:43.007Z,97789.20
2023-12-09T23:08:40.829Z,97790.80
2023-12-09T23:11:38.494Z,97780.60
2023-12-09T23:14:36.186Z,97761.60
2023-12-09T23:17:33.660Z,97761.60
2023-12-09T23:20:31.505Z,97774.40
2023-12-09T23:23:28.914Z,97805.60
2023-12-09T23:26:26.538Z,97813.20
2023-12-09T23:29:23.970Z,97810.60
2023-12-09T23:32:22.065Z,97787.80
2023-12-09T23:35:19.693Z,97780.00
2023-12-09T23:38:17.116Z,97780.80
2023-12-09T23:41:14.753Z,97779.60
2023-12-09T23:44:12.185Z,97771.40
2023-12-09T23:47:10.133Z,97767.00
2023-12-09T23:50:07.599Z,97755.80
2023-12-09T23:53:05.233Z,97750.60
2023-12-09T23:56:02.660Z,97757.80
2023-12-09T23:59:00.337Z,97745.40
